Portada
METAR-TAF:

METAR-TAF

Aeropuertos :

Aeropuerto Internacional Gobernador Francisco Gabrielli

Mendoza, Argentina

latitud: 32-50S, longitud: 068-47W, altitud: 705 m

Observación

El informe se hizo hace 43 minutos, a las 15:00 UTC
Viento 8 kt del sureste
Temperatura 28°C
Humedad 25%
Presión 1013 hPa
Visibilidad 10 km o más
sin nubes por debajo de 1500 m y sin presencia de cumulonimbus.

METAR: SAME 201500Z 14008KT CAVOK 28/06 Q1013

Hora: 12:43 (15:43 UTC)

Pronóstico

El informe se hizo hace 4 horas y 43 minutos, a las 11:00 UTC
Pronóstico válido del 20 a las 12 UTC al 21 a las 12 UTC
Viento 10 kt del sureste
Visibilidad 10 km o más
Escasas nubes a una altura de 4000 ft

TAF: SAME 201100Z 2012/2112 14010KT 9999 FEW040 TX34/2020Z TN19/2110Z

Observaciones y pronósticos meteorológicos de más de 4000 aeropuertos (mensajes METAR y TAF).

Los puntos amarillos y rojos representan las estaciones disponibles.

Ponga el ratón en el punto deseado para ver el nombre de la estación.

Haga clic para ver las observaciones y los pronósticos meteorológicos.

Para cambiar el mapa : haga clic en los botones verdes con una cruz de color negro para hacer un zoom, en el botón verde con un guión para alejar o en las flechas verdes para mapas adyacentes.


METAR-TAF: